sensor_id;sensor_type;location;lat;lon;timestamp;temperature;humidity
14172;DHT22;7165;52.388;4.928;2023-09-07T00:00:23;19.10;99.90
14172;DHT22;7165;52.388;4.928;2023-09-07T00:02:50;19.10;99.90
14172;DHT22;7165;52.388;4.928;2023-09-07T00:05:16;19.10;99.90
14172;DHT22;7165;52.388;4.928;2023-09-07T00:07:44;19.10;99.90
14172;DHT22;7165;52.388;4.928;2023-09-07T00:10:11;19.10;99.90
14172;DHT22;7165;52.388;4.928;2023-09-07T00:12:37;19.10;99.90
14172;DHT22;7165;52.388;4.928;2023-09-07T00:15:05;19.10;99.90
14172;DHT22;7165;52.388;4.928;2023-09-07T00:17:32;19.10;99.90
14172;DHT22;7165;52.388;4.928;2023-09-07T00:19:58;19.10;99.90
14172;DHT22;7165;52.388;4.928;2023-09-07T00:22:25;19.10;99.90
14172;DHT22;7165;52.388;4.928;2023-09-07T00:24:53;19.10;99.90
14172;DHT22;7165;52.388;4.928;2023-09-07T00:27:19;19.00;99.90
14172;DHT22;7165;52.388;4.928;2023-09-07T00:29:45;19.00;99.90
14172;DHT22;7165;52.388;4.928;2023-09-07T00:32:11;19.00;99.90
14172;DHT22;7165;52.388;4.928;2023-09-07T00:34:38;19.00;99.90
14172;DHT22;7165;52.388;4.928;2023-09-07T00:37:04;19.00;99.90
14172;DHT22;7165;52.388;4.928;2023-09-07T00:39:31;19.00;99.90
14172;DHT22;7165;52.388;4.928;2023-09-07T00:41:59;19.00;99.90
14172;DHT22;7165;52.388;4.928;2023-09-07T00:44:25;19.00;99.90
14172;DHT22;7165;52.388;4.928;2023-09-07T00:46:52;19.00;99.90
14172;DHT22;7165;52.388;4.928;2023-09-07T00:49:18;19.00;99.90
14172;DHT22;7165;52.388;4.928;2023-09-07T00:51:45;19.10;99.90
14172;DHT22;7165;52.388;4.928;2023-09-07T00:54:11;19.00;99.90
14172;DHT22;7165;52.388;4.928;2023-09-07T00:56:38;19.00;99.90
14172;DHT22;7165;52.388;4.928;2023-09-07T00:59:06;19.00;99.90
14172;DHT22;7165;52.388;4.928;2023-09-07T01:01:34;18.90;99.90
14172;DHT22;7165;52.388;4.928;2023-09-07T01:04:01;18.90;99.90
14172;DHT22;7165;52.388;4.928;2023-09-07T01:06:29;18.90;99.90
14172;DHT22;7165;52.388;4.928;2023-09-07T01:08:57;18.90;99.90
14172;DHT22;7165;52.388;4.928;2023-09-07T01:11:24;18.80;99.90
14172;DHT22;7165;52.388;4.928;2023-09-07T01:13:51;18.80;99.90
14172;DHT22;7165;52.388;4.928;2023-09-07T01:16:20;18.80;99.90
14172;DHT22;7165;52.388;4.928;2023-09-07T01:18:49;18.80;99.90
14172;DHT22;7165;52.388;4.928;2023-09-07T01:21:15;18.80;99.90
14172;DHT22;7165;52.388;4.928;2023-09-07T01:23:45;18.80;99.90
14172;DHT22;7165;52.388;4.928;2023-09-07T01:26:14;18.80;99.90
14172;DHT22;7165;52.388;4.928;2023-09-07T01:28:41;18.80;99.90
14172;DHT22;7165;52.388;4.928;2023-09-07T01:31:08;18.80;99.90
14172;DHT22;7165;52.388;4.928;2023-09-07T01:33:34;18.80;99.90
14172;DHT22;7165;52.388;4.928;2023-09-07T01:36:01;18.90;99.90
14172;DHT22;7165;52.388;4.928;2023-09-07T01:38:28;19.00;99.90
14172;DHT22;7165;52.388;4.928;2023-09-07T01:40:56;19.00;99.90
14172;DHT22;7165;52.388;4.928;2023-09-07T01:43:22;19.00;99.90
14172;DHT22;7165;52.388;4.928;2023-09-07T01:45:49;19.00;99.90
14172;DHT22;7165;52.388;4.928;2023-09-07T01:48:15;19.10;99.90
14172;DHT22;7165;52.388;4.928;2023-09-07T01:50:42;19.10;99.90
14172;DHT22;7165;52.388;4.928;2023-09-07T01:53:08;19.10;99.90
14172;DHT22;7165;52.388;4.928;2023-09-07T01:55:35;19.20;99.90
14172;DHT22;7165;52.388;4.928;2023-09-07T01:58:03;19.30;99.90
14172;DHT22;7165;52.388;4.928;2023-09-07T02:00:29;19.40;99.90
14172;DHT22;7165;52.388;4.928;2023-09-07T02:02:56;19.50;99.90
14172;DHT22;7165;52.388;4.928;2023-09-07T02:05:22;19.50;99.90
14172;DHT22;7165;52.388;4.928;2023-09-07T02:07:49;19.50;99.90
14172;DHT22;7165;52.388;4.928;2023-09-07T02:10:16;19.40;99.90
14172;DHT22;7165;52.388;4.928;2023-09-07T02:12:42;19.50;99.90
14172;DHT22;7165;52.388;4.928;2023-09-07T02:15:10;19.50;99.90
14172;DHT22;7165;52.388;4.928;2023-09-07T02:17:37;19.50;99.90
14172;DHT22;7165;52.388;4.928;2023-09-07T02:20:03;19.60;99.90
14172;DHT22;7165;52.388;4.928;2023-09-07T02:22:35;19.60;99.90
14172;DHT22;7165;52.388;4.928;2023-09-07T02:25:02;19.60;99.90
14172;DHT22;7165;52.388;4.928;2023-09-07T02:27:30;19.60;99.90
14172;DHT22;7165;52.388;4.928;2023-09-07T02:29:57;19.60;99.90
14172;DHT22;7165;52.388;4.928;2023-09-07T02:32:25;19.50;99.90
14172;DHT22;7165;52.388;4.928;2023-09-07T02:34:51;19.50;99.90
14172;DHT22;7165;52.388;4.928;2023-09-07T02:37:18;19.40;99.90
14172;DHT22;7165;52.388;4.928;2023-09-07T02:39:44;19.40;99.90
14172;DHT22;7165;52.388;4.928;2023-09-07T02:42:11;19.30;99.90
14172;DHT22;7165;52.388;4.928;2023-09-07T02:44:38;19.30;99.90
14172;DHT22;7165;52.388;4.928;2023-09-07T02:47:04;19.30;99.90
14172;DHT22;7165;52.388;4.928;2023-09-07T02:49:32;19.20;99.90
14172;DHT22;7165;52.388;4.928;2023-09-07T02:51:59;19.20;99.90
14172;DHT22;7165;52.388;4.928;2023-09-07T02:54:25;19.20;99.90
14172;DHT22;7165;52.388;4.928;2023-09-07T02:56:51;19.10;99.90
14172;DHT22;7165;52.388;4.928;2023-09-07T02:59:18;19.10;99.90
14172;DHT22;7165;52.388;4.928;2023-09-07T03:01:45;19.10;99.90
14172;DHT22;7165;52.388;4.928;2023-09-07T03:04:11;19.00;99.90
14172;DHT22;7165;52.388;4.928;2023-09-07T03:06:39;19.00;99.90
14172;DHT22;7165;52.388;4.928;2023-09-07T03:09:06;18.90;99.90
14172;DHT22;7165;52.388;4.928;2023-09-07T03:11:34;18.90;99.90
14172;DHT22;7165;52.388;4.928;2023-09-07T03:14:00;18.90;99.90
14172;DHT22;7165;52.388;4.928;2023-09-07T03:16:27;18.90;99.90
14172;DHT22;7165;52.388;4.928;2023-09-07T03:18:55;18.80;99.90
14172;DHT22;7165;52.388;4.928;2023-09-07T03:21:21;18.80;99.90
14172;DHT22;7165;52.388;4.928;2023-09-07T03:23:52;18.70;99.90
14172;DHT22;7165;52.388;4.928;2023-09-07T03:26:19;18.70;99.90
14172;DHT22;7165;52.388;4.928;2023-09-07T03:28:45;18.70;99.90
14172;DHT22;7165;52.388;4.928;2023-09-07T03:31:12;18.60;99.90
14172;DHT22;7165;52.388;4.928;2023-09-07T03:33:39;18.60;99.90
14172;DHT22;7165;52.388;4.928;2023-09-07T03:36:05;18.60;99.90
14172;DHT22;7165;52.388;4.928;2023-09-07T03:38:32;18.60;99.90
14172;DHT22;7165;52.388;4.928;2023-09-07T03:41:00;18.50;99.90
14172;DHT22;7165;52.388;4.928;2023-09-07T03:43:27;18.50;99.90
14172;DHT22;7165;52.388;4.928;2023-09-07T03:45:53;18.50;99.90
14172;DHT22;7165;52.388;4.928;2023-09-07T03:48:20;18.40;99.90
14172;DHT22;7165;52.388;4.928;2023-09-07T03:50:46;18.40;99.90
14172;DHT22;7165;52.388;4.928;2023-09-07T03:53:13;18.30;99.90
14172;DHT22;7165;52.388;4.928;2023-09-07T03:55:40;18.30;99.90
14172;DHT22;7165;52.388;4.928;2023-09-07T03:58:09;18.30;99.90
14172;DHT22;7165;52.388;4.928;2023-09-07T04:00:38;18.30;99.90
14172;DHT22;7165;52.388;4.928;2023-09-07T04:03:05;18.20;99.90
14172;DHT22;7165;52.388;4.928;2023-09-07T04:05:32;18.20;99.90
14172;DHT22;7165;52.388;4.928;2023-09-07T04:07:58;18.20;99.90
14172;DHT22;7165;52.388;4.928;2023-09-07T04:10:25;18.20;99.90
14172;DHT22;7165;52.388;4.928;2023-09-07T04:12:52;18.20;99.90
14172;DHT22;7165;52.388;4.928;2023-09-07T04:15:20;18.20;99.90
14172;DHT22;7165;52.388;4.928;2023-09-07T04:17:46;18.20;99.90
14172;DHT22;7165;52.388;4.928;2023-09-07T04:20:13;18.20;99.90
14172;DHT22;7165;52.388;4.928;2023-09-07T04:22:39;18.20;99.90
14172;DHT22;7165;52.388;4.928;2023-09-07T04:25:06;18.20;99.90
14172;DHT22;7165;52.388;4.928;2023-09-07T04:27:33;18.10;99.90
14172;DHT22;7165;52.388;4.928;2023-09-07T04:30:00;18.10;99.90
14172;DHT22;7165;52.388;4.928;2023-09-07T04:32:28;18.10;99.90
14172;DHT22;7165;52.388;4.928;2023-09-07T04:34:55;18.10;99.90
14172;DHT22;7165;52.388;4.928;2023-09-07T04:37:22;18.00;99.90
14172;DHT22;7165;52.388;4.928;2023-09-07T04:39:50;18.00;99.90
14172;DHT22;7165;52.388;4.928;2023-09-07T04:42:17;18.00;99.90
14172;DHT22;7165;52.388;4.928;2023-09-07T04:44:43;18.10;99.90
14172;DHT22;7165;52.388;4.928;2023-09-07T04:47:10;18.00;99.90
14172;DHT22;7165;52.388;4.928;2023-09-07T04:49:37;18.00;99.90
14172;DHT22;7165;52.388;4.928;2023-09-07T04:52:05;17.90;99.90
14172;DHT22;7165;52.388;4.928;2023-09-07T04:54:32;17.90;99.90
14172;DHT22;7165;52.388;4.928;2023-09-07T04:56:59;17.90;99.90
14172;DHT22;7165;52.388;4.928;2023-09-07T04:59:25;17.80;99.90
14172;DHT22;7165;52.388;4.928;2023-09-07T05:01:52;17.80;99.90
14172;DHT22;7165;52.388;4.928;2023-09-07T05:04:18;17.70;99.90
14172;DHT22;7165;52.388;4.928;2023-09-07T05:06:46;17.80;99.90
14172;DHT22;7165;52.388;4.928;2023-09-07T05:09:13;17.80;99.90
14172;DHT22;7165;52.388;4.928;2023-09-07T05:11:40;17.80;99.90
14172;DHT22;7165;52.388;4.928;2023-09-07T05:14:06;17.80;99.90
14172;DHT22;7165;52.388;4.928;2023-09-07T05:16:33;17.90;99.90
14172;DHT22;7165;52.388;4.928;2023-09-07T05:18:59;17.90;99.90
14172;DHT22;7165;52.388;4.928;2023-09-07T05:21:26;17.90;99.90
14172;DHT22;7165;52.388;4.928;2023-09-07T05:23:54;17.90;99.90
14172;DHT22;7165;52.388;4.928;2023-09-07T05:26:21;17.90;99.90
14172;DHT22;7165;52.388;4.928;2023-09-07T05:28:49;17.90;99.90
14172;DHT22;7165;52.388;4.928;2023-09-07T05:31:16;17.90;99.90
14172;DHT22;7165;52.388;4.928;2023-09-07T05:33:42;17.90;99.90
14172;DHT22;7165;52.388;4.928;2023-09-07T05:36:09;17.90;99.90
14172;DHT22;7165;52.388;4.928;2023-09-07T05:38:36;17.90;99.90
14172;DHT22;7165;52.388;4.928;2023-09-07T05:41:04;17.80;99.90
14172;DHT22;7165;52.388;4.928;2023-09-07T05:43:31;17.80;99.90
14172;DHT22;7165;52.388;4.928;2023-09-07T05:45:57;17.80;99.90
14172;DHT22;7165;52.388;4.928;2023-09-07T05:48:24;17.90;99.90
14172;DHT22;7165;52.388;4.928;2023-09-07T05:50:51;17.90;99.90
14172;DHT22;7165;52.388;4.928;2023-09-07T05:53:18;17.90;99.90
14172;DHT22;7165;52.388;4.928;2023-09-07T05:55:45;17.90;99.90
14172;DHT22;7165;52.388;4.928;2023-09-07T05:58:13;17.90;99.90
14172;DHT22;7165;52.388;4.928;2023-09-07T06:00:40;18.00;99.90
14172;DHT22;7165;52.388;4.928;2023-09-07T06:03:07;18.00;99.90
14172;DHT22;7165;52.388;4.928;2023-09-07T06:05:35;18.00;99.90
14172;DHT22;7165;52.388;4.928;2023-09-07T06:08:02;18.00;99.90
14172;DHT22;7165;52.388;4.928;2023-09-07T06:10:29;18.10;99.90
14172;DHT22;7165;52.388;4.928;2023-09-07T06:12:56;18.10;99.90
14172;DHT22;7165;52.388;4.928;2023-09-07T06:15:25;18.10;99.90
14172;DHT22;7165;52.388;4.928;2023-09-07T06:17:52;18.20;99.90
14172;DHT22;7165;52.388;4.928;2023-09-07T06:20:19;18.30;99.90
14172;DHT22;7165;52.388;4.928;2023-09-07T06:22:46;18.30;99.90
14172;DHT22;7165;52.388;4.928;2023-09-07T06:25:14;18.30;99.90
14172;DHT22;7165;52.388;4.928;2023-09-07T06:27:41;18.40;99.90
14172;DHT22;7165;52.388;4.928;2023-09-07T06:30:08;18.50;99.90
14172;DHT22;7165;52.388;4.928;2023-09-07T06:32:36;18.50;99.90
14172;DHT22;7165;52.388;4.928;2023-09-07T06:35:04;18.70;99.90
14172;DHT22;7165;52.388;4.928;2023-09-07T06:37:31;18.80;99.90
14172;DHT22;7165;52.388;4.928;2023-09-07T06:39:58;18.90;99.90
14172;DHT22;7165;52.388;4.928;2023-09-07T06:42:24;19.10;99.90
14172;DHT22;7165;52.388;4.928;2023-09-07T06:44:51;19.20;99.90
14172;DHT22;7165;52.388;4.928;2023-09-07T06:47:18;19.30;99.90
14172;DHT22;7165;52.388;4.928;2023-09-07T06:49:45;19.40;99.90
14172;DHT22;7165;52.388;4.928;2023-09-07T06:52:12;19.60;99.90
14172;DHT22;7165;52.388;4.928;2023-09-07T06:54:40;19.70;99.90
14172;DHT22;7165;52.388;4.928;2023-09-07T06:57:07;19.90;99.90
14172;DHT22;7165;52.388;4.928;2023-09-07T06:59:33;20.00;99.90
14172;DHT22;7165;52.388;4.928;2023-09-07T07:02:00;20.10;99.90
14172;DHT22;7165;52.388;4.928;2023-09-07T07:04:28;20.30;99.90
14172;DHT22;7165;52.388;4.928;2023-09-07T07:06:55;20.30;99.90
14172;DHT22;7165;52.388;4.928;2023-09-07T07:09:22;20.50;99.90
14172;DHT22;7165;52.388;4.928;2023-09-07T07:11:49;20.60;99.90
14172;DHT22;7165;52.388;4.928;2023-09-07T07:14:15;20.80;99.90
14172;DHT22;7165;52.388;4.928;2023-09-07T07:16:43;21.00;99.90
14172;DHT22;7165;52.388;4.928;2023-09-07T07:19:15;21.10;99.90
14172;DHT22;7165;52.388;4.928;2023-09-07T07:21:41;21.20;99.90
14172;DHT22;7165;52.388;4.928;2023-09-07T07:24:09;21.30;99.90
14172;DHT22;7165;52.388;4.928;2023-09-07T07:26:35;21.50;99.90
14172;DHT22;7165;52.388;4.928;2023-09-07T07:29:02;21.60;99.90
14172;DHT22;7165;52.388;4.928;2023-09-07T07:31:29;21.80;99.90
14172;DHT22;7165;52.388;4.928;2023-09-07T07:33:55;21.80;99.90
14172;DHT22;7165;52.388;4.928;2023-09-07T07:36:22;21.90;99.90
14172;DHT22;7165;52.388;4.928;2023-09-07T07:38:49;22.10;99.90
14172;DHT22;7165;52.388;4.928;2023-09-07T07:41:17;22.10;99.90
14172;DHT22;7165;52.388;4.928;2023-09-07T07:43:43;22.20;99.90
14172;DHT22;7165;52.388;4.928;2023-09-07T07:46:12;22.40;99.90
14172;DHT22;7165;52.388;4.928;2023-09-07T07:48:41;22.50;99.90
14172;DHT22;7165;52.388;4.928;2023-09-07T07:51:07;22.60;99.90
14172;DHT22;7165;52.388;4.928;2023-09-07T07:53:34;22.70;99.90
14172;DHT22;7165;52.388;4.928;2023-09-07T07:56:00;22.80;99.90
14172;DHT22;7165;52.388;4.928;2023-09-07T07:58:29;22.90;99.90
14172;DHT22;7165;52.388;4.928;2023-09-07T08:00:56;23.00;99.90
14172;DHT22;7165;52.388;4.928;2023-09-07T08:03:24;23.00;99.90
14172;DHT22;7165;52.388;4.928;2023-09-07T08:05:50;23.10;99.90
14172;DHT22;7165;52.388;4.928;2023-09-07T08:08:17;23.20;99.90
14172;DHT22;7165;52.388;4.928;2023-09-07T08:10:44;23.30;99.90
14172;DHT22;7165;52.388;4.928;2023-09-07T08:13:11;23.40;99.90
14172;DHT22;7165;52.388;4.928;2023-09-07T08:15:40;23.50;99.90
14172;DHT22;7165;52.388;4.928;2023-09-07T08:18:06;23.70;99.90
14172;DHT22;7165;52.388;4.928;2023-09-07T08:20:34;23.80;99.90
14172;DHT22;7165;52.388;4.928;2023-09-07T08:23:01;23.90;99.90
14172;DHT22;7165;52.388;4.928;2023-09-07T08:25:32;24.00;99.90
14172;DHT22;7165;52.388;4.928;2023-09-07T08:27:59;24.10;99.90
14172;DHT22;7165;52.388;4.928;2023-09-07T08:30:25;24.30;99.90
14172;DHT22;7165;52.388;4.928;2023-09-07T08:32:53;24.40;99.90
14172;DHT22;7165;52.388;4.928;2023-09-07T08:35:20;24.50;99.90
14172;DHT22;7165;52.388;4.928;2023-09-07T08:37:52;24.60;99.90
14172;DHT22;7165;52.388;4.928;2023-09-07T08:40:18;24.70;99.90
14172;DHT22;7165;52.388;4.928;2023-09-07T08:42:45;24.70;99.90
14172;DHT22;7165;52.388;4.928;2023-09-07T08:45:12;24.80;99.90
14172;DHT22;7165;52.388;4.928;2023-09-07T08:47:40;24.70;99.90
14172;DHT22;7165;52.388;4.928;2023-09-07T08:50:09;24.80;99.90
14172;DHT22;7165;52.388;4.928;2023-09-07T08:52:36;24.90;99.90
14172;DHT22;7165;52.388;4.928;2023-09-07T08:55:03;25.10;99.90
14172;DHT22;7165;52.388;4.928;2023-09-07T08:57:31;25.20;99.90
14172;DHT22;7165;52.388;4.928;2023-09-07T08:59:58;25.30;99.90
14172;DHT22;7165;52.388;4.928;2023-09-07T09:02:24;25.40;99.90
14172;DHT22;7165;52.388;4.928;2023-09-07T09:04:51;25.50;99.90
14172;DHT22;7165;52.388;4.928;2023-09-07T09:07:20;25.50;99.90
14172;DHT22;7165;52.388;4.928;2023-09-07T09:09:47;25.60;99.90
14172;DHT22;7165;52.388;4.928;2023-09-07T09:12:14;25.70;99.90
14172;DHT22;7165;52.388;4.928;2023-09-07T09:14:41;25.70;99.90
14172;DHT22;7165;52.388;4.928;2023-09-07T09:17:11;25.70;99.90
14172;DHT22;7165;52.388;4.928;2023-09-07T09:19:37;25.70;99.90
14172;DHT22;7165;52.388;4.928;2023-09-07T09:22:04;25.80;99.90
14172;DHT22;7165;52.388;4.928;2023-09-07T09:24:32;25.90;99.90
14172;DHT22;7165;52.388;4.928;2023-09-07T09:27:00;26.00;99.90
14172;DHT22;7165;52.388;4.928;2023-09-07T09:29:26;26.00;99.90
14172;DHT22;7165;52.388;4.928;2023-09-07T09:31:53;26.20;99.90
14172;DHT22;7165;52.388;4.928;2023-09-07T09:34:20;26.30;99.90
14172;DHT22;7165;52.388;4.928;2023-09-07T09:36:47;26.30;99.90
14172;DHT22;7165;52.388;4.928;2023-09-07T09:39:21;26.40;99.90
14172;DHT22;7165;52.388;4.928;2023-09-07T09:41:49;26.50;99.90
14172;DHT22;7165;52.388;4.928;2023-09-07T09:44:16;26.60;99.90
14172;DHT22;7165;52.388;4.928;2023-09-07T09:46:42;26.70;99.90
14172;DHT22;7165;52.388;4.928;2023-09-07T09:49:09;26.80;99.90
14172;DHT22;7165;52.388;4.928;2023-09-07T09:51:38;26.80;99.90
14172;DHT22;7165;52.388;4.928;2023-09-07T09:54:06;26.90;99.90
14172;DHT22;7165;52.388;4.928;2023-09-07T09:56:33;27.00;99.90
14172;DHT22;7165;52.388;4.928;2023-09-07T09:59:00;27.10;99.90
14172;DHT22;7165;52.388;4.928;2023-09-07T10:01:27;27.10;99.90
14172;DHT22;7165;52.388;4.928;2023-09-07T10:03:55;27.20;99.90
14172;DHT22;7165;52.388;4.928;2023-09-07T10:06:23;27.30;99.90
14172;DHT22;7165;52.388;4.928;2023-09-07T10:08:52;27.40;99.90
14172;DHT22;7165;52.388;4.928;2023-09-07T10:11:25;27.60;99.90
14172;DHT22;7165;52.388;4.928;2023-09-07T10:13:56;27.70;99.90
14172;DHT22;7165;52.388;4.928;2023-09-07T10:16:24;27.80;99.90
14172;DHT22;7165;52.388;4.928;2023-09-07T10:18:52;27.80;99.90
14172;DHT22;7165;52.388;4.928;2023-09-07T10:21:20;27.90;99.90
14172;DHT22;7165;52.388;4.928;2023-09-07T10:23:46;28.00;99.90
14172;DHT22;7165;52.388;4.928;2023-09-07T10:26:17;28.10;99.90
14172;DHT22;7165;52.388;4.928;2023-09-07T10:28:46;28.20;99.90
14172;DHT22;7165;52.388;4.928;2023-09-07T10:31:13;28.30;99.90
14172;DHT22;7165;52.388;4.928;2023-09-07T10:33:41;28.40;99.90
14172;DHT22;7165;52.388;4.928;2023-09-07T10:36:08;28.50;99.90
14172;DHT22;7165;52.388;4.928;2023-09-07T10:38:35;28.60;99.90
14172;DHT22;7165;52.388;4.928;2023-09-07T10:41:02;28.80;99.90
14172;DHT22;7165;52.388;4.928;2023-09-07T10:43:30;28.90;99.90
14172;DHT22;7165;52.388;4.928;2023-09-07T10:45:58;29.00;99.90
14172;DHT22;7165;52.388;4.928;2023-09-07T10:48:25;29.20;99.90
14172;DHT22;7165;52.388;4.928;2023-09-07T10:50:53;29.40;99.90
14172;DHT22;7165;52.388;4.928;2023-09-07T10:53:24;29.50;99.90
14172;DHT22;7165;52.388;4.928;2023-09-07T10:55:51;29.50;99.90
14172;DHT22;7165;52.388;4.928;2023-09-07T10:58:24;29.50;99.90
14172;DHT22;7165;52.388;4.928;2023-09-07T11:00:52;29.50;99.90
14172;DHT22;7165;52.388;4.928;2023-09-07T11:03:18;29.60;99.90
14172;DHT22;7165;52.388;4.928;2023-09-07T11:05:45;29.60;99.90
14172;DHT22;7165;52.388;4.928;2023-09-07T11:08:13;29.70;99.90
14172;DHT22;7165;52.388;4.928;2023-09-07T11:10:39;29.80;99.90
14172;DHT22;7165;52.388;4.928;2023-09-07T11:13:06;29.80;99.90
14172;DHT22;7165;52.388;4.928;2023-09-07T11:15:33;29.80;99.90
14172;DHT22;7165;52.388;4.928;2023-09-07T11:18:04;29.90;99.90
14172;DHT22;7165;52.388;4.928;2023-09-07T11:20:32;30.00;99.90
14172;DHT22;7165;52.388;4.928;2023-09-07T11:22:59;30.00;99.90
14172;DHT22;7165;52.388;4.928;2023-09-07T11:25:27;30.00;99.90
14172;DHT22;7165;52.388;4.928;2023-09-07T11:27:53;30.10;99.90
14172;DHT22;7165;52.388;4.928;2023-09-07T11:30:22;30.20;99.90
14172;DHT22;7165;52.388;4.928;2023-09-07T11:32:49;30.20;99.90
14172;DHT22;7165;52.388;4.928;2023-09-07T11:35:15;30.40;99.90
14172;DHT22;7165;52.388;4.928;2023-09-07T11:37:42;30.60;99.90
14172;DHT22;7165;52.388;4.928;2023-09-07T11:40:09;30.80;99.90
14172;DHT22;7165;52.388;4.928;2023-09-07T11:42:38;30.80;99.90
14172;DHT22;7165;52.388;4.928;2023-09-07T11:45:06;30.90;99.90
14172;DHT22;7165;52.388;4.928;2023-09-07T11:47:32;30.90;99.90
14172;DHT22;7165;52.388;4.928;2023-09-07T11:50:00;31.00;99.90
14172;DHT22;7165;52.388;4.928;2023-09-07T11:52:28;31.00;99.90
14172;DHT22;7165;52.388;4.928;2023-09-07T11:54:54;31.00;99.90
14172;DHT22;7165;52.388;4.928;2023-09-07T11:57:21;31.10;99.90
14172;DHT22;7165;52.388;4.928;2023-09-07T11:59:49;31.30;99.90
14172;DHT22;7165;52.388;4.928;2023-09-07T12:02:15;31.40;99.90
14172;DHT22;7165;52.388;4.928;2023-09-07T12:04:42;31.40;99.90
14172;DHT22;7165;52.388;4.928;2023-09-07T12:07:09;31.40;99.90
14172;DHT22;7165;52.388;4.928;2023-09-07T12:09:36;31.50;99.90
14172;DHT22;7165;52.388;4.928;2023-09-07T12:12:03;31.50;99.90
14172;DHT22;7165;52.388;4.928;2023-09-07T12:14:29;31.50;99.90
14172;DHT22;7165;52.388;4.928;2023-09-07T12:16:57;31.60;99.90
14172;DHT22;7165;52.388;4.928;2023-09-07T12:19:25;31.70;99.90
14172;DHT22;7165;52.388;4.928;2023-09-07T12:21:51;31.90;99.90
14172;DHT22;7165;52.388;4.928;2023-09-07T12:24:18;32.00;99.90
14172;DHT22;7165;52.388;4.928;2023-09-07T12:26:44;32.00;99.90
14172;DHT22;7165;52.388;4.928;2023-09-07T12:29:11;32.00;99.90
14172;DHT22;7165;52.388;4.928;2023-09-07T12:31:38;32.00;99.90
14172;DHT22;7165;52.388;4.928;2023-09-07T12:34:06;32.10;99.90
14172;DHT22;7165;52.388;4.928;2023-09-07T12:36:33;32.20;99.90
14172;DHT22;7165;52.388;4.928;2023-09-07T12:39:00;32.30;99.90
14172;DHT22;7165;52.388;4.928;2023-09-07T12:41:27;32.30;99.90
14172;DHT22;7165;52.388;4.928;2023-09-07T12:43:53;32.10;99.90
14172;DHT22;7165;52.388;4.928;2023-09-07T12:46:20;32.00;99.90
14172;DHT22;7165;52.388;4.928;2023-09-07T12:48:46;32.00;99.90
14172;DHT22;7165;52.388;4.928;2023-09-07T12:51:14;31.80;99.90
14172;DHT22;7165;52.388;4.928;2023-09-07T12:53:41;31.90;99.90
14172;DHT22;7165;52.388;4.928;2023-09-07T12:56:08;31.80;99.90
14172;DHT22;7165;52.388;4.928;2023-09-07T12:58:34;31.80;99.90
14172;DHT22;7165;52.388;4.928;2023-09-07T13:01:01;31.80;99.90
14172;DHT22;7165;52.388;4.928;2023-09-07T13:03:27;31.80;99.90
14172;DHT22;7165;52.388;4.928;2023-09-07T13:05:54;31.70;99.90
14172;DHT22;7165;52.388;4.928;2023-09-07T13:08:22;31.60;99.90
14172;DHT22;7165;52.388;4.928;2023-09-07T13:10:48;31.50;99.90
14172;DHT22;7165;52.388;4.928;2023-09-07T13:13:15;31.30;99.90
14172;DHT22;7165;52.388;4.928;2023-09-07T13:15:42;31.20;99.90
14172;DHT22;7165;52.388;4.928;2023-09-07T13:18:09;31.20;99.90
14172;DHT22;7165;52.388;4.928;2023-09-07T13:20:35;31.10;99.90
14172;DHT22;7165;52.388;4.928;2023-09-07T13:23:02;31.10;99.90
14172;DHT22;7165;52.388;4.928;2023-09-07T13:25:30;31.10;99.90
14172;DHT22;7165;52.388;4.928;2023-09-07T13:27:56;31.00;99.90
14172;DHT22;7165;52.388;4.928;2023-09-07T13:30:23;31.10;99.90
14172;DHT22;7165;52.388;4.928;2023-09-07T13:32:50;31.00;99.90
14172;DHT22;7165;52.388;4.928;2023-09-07T13:35:16;31.00;99.90
14172;DHT22;7165;52.388;4.928;2023-09-07T13:37:43;31.00;99.90
14172;DHT22;7165;52.388;4.928;2023-09-07T13:40:09;31.00;99.90
14172;DHT22;7165;52.388;4.928;2023-09-07T13:42:37;31.00;99.90
14172;DHT22;7165;52.388;4.928;2023-09-07T13:45:04;30.90;99.90
14172;DHT22;7165;52.388;4.928;2023-09-07T13:47:31;31.00;99.90
14172;DHT22;7165;52.388;4.928;2023-09-07T13:49:57;30.90;99.90
14172;DHT22;7165;52.388;4.928;2023-09-07T13:52:24;30.90;99.90
14172;DHT22;7165;52.388;4.928;2023-09-07T13:54:51;31.00;99.90
14172;DHT22;7165;52.388;4.928;2023-09-07T13:57:17;31.00;99.90
14172;DHT22;7165;52.388;4.928;2023-09-07T13:59:45;31.00;99.90
14172;DHT22;7165;52.388;4.928;2023-09-07T14:02:12;31.10;99.90
14172;DHT22;7165;52.388;4.928;2023-09-07T14:04:38;31.20;99.90
14172;DHT22;7165;52.388;4.928;2023-09-07T14:07:05;31.20;99.90
14172;DHT22;7165;52.388;4.928;2023-09-07T14:09:31;31.30;99.90
14172;DHT22;7165;52.388;4.928;2023-09-07T14:11:58;31.30;99.90
14172;DHT22;7165;52.388;4.928;2023-09-07T14:14:25;31.30;99.90
14172;DHT22;7165;52.388;4.928;2023-09-07T14:16:53;31.30;99.90
14172;DHT22;7165;52.388;4.928;2023-09-07T14:19:22;31.40;99.90
14172;DHT22;7165;52.388;4.928;2023-09-07T14:21:48;31.40;99.90
14172;DHT22;7165;52.388;4.928;2023-09-07T14:24:15;31.50;99.90
14172;DHT22;7165;52.388;4.928;2023-09-07T14:26:41;31.50;99.90
14172;DHT22;7165;52.388;4.928;2023-09-07T14:29:07;31.50;99.90
14172;DHT22;7165;52.388;4.928;2023-09-07T14:31:34;31.60;99.90
14172;DHT22;7165;52.388;4.928;2023-09-07T14:34:02;31.70;99.90
14172;DHT22;7165;52.388;4.928;2023-09-07T14:36:28;31.70;99.90
14172;DHT22;7165;52.388;4.928;2023-09-07T14:38:55;31.80;99.90
14172;DHT22;7165;52.388;4.928;2023-09-07T14:41:21;31.90;99.90
14172;DHT22;7165;52.388;4.928;2023-09-07T14:43:48;32.00;99.90
14172;DHT22;7165;52.388;4.928;2023-09-07T14:46:15;32.10;99.90
14172;DHT22;7165;52.388;4.928;2023-09-07T14:48:42;32.30;99.90
14172;DHT22;7165;52.388;4.928;2023-09-07T14:51:10;32.50;99.90
14172;DHT22;7165;52.388;4.928;2023-09-07T14:53:36;32.80;99.90
14172;DHT22;7165;52.388;4.928;2023-09-07T14:56:03;33.10;99.90
14172;DHT22;7165;52.388;4.928;2023-09-07T14:58:30;33.50;99.90
14172;DHT22;7165;52.388;4.928;2023-09-07T15:00:56;34.00;99.90
14172;DHT22;7165;52.388;4.928;2023-09-07T15:03:23;34.80;99.70
14172;DHT22;7165;52.388;4.928;2023-09-07T15:05:49;35.50;98.20
14172;DHT22;7165;52.388;4.928;2023-09-07T15:08:17;36.10;97.10
14172;DHT22;7165;52.388;4.928;2023-09-07T15:10:44;36.70;95.90
14172;DHT22;7165;52.388;4.928;2023-09-07T15:13:10;37.00;93.60
14172;DHT22;7165;52.388;4.928;2023-09-07T15:15:37;37.20;93.20
14172;DHT22;7165;52.388;4.928;2023-09-07T15:18:05;37.50;92.60
14172;DHT22;7165;52.388;4.928;2023-09-07T15:20:32;37.90;92.20
14172;DHT22;7165;52.388;4.928;2023-09-07T15:22:59;38.20;91.20
14172;DHT22;7165;52.388;4.928;2023-09-07T15:25:27;38.60;90.20
14172;DHT22;7165;52.388;4.928;2023-09-07T15:27:53;38.90;88.00
14172;DHT22;7165;52.388;4.928;2023-09-07T15:30:22;39.10;86.00
14172;DHT22;7165;52.388;4.928;2023-09-07T15:32:48;39.10;84.40
14172;DHT22;7165;52.388;4.928;2023-09-07T15:35:15;39.60;84.00
14172;DHT22;7165;52.388;4.928;2023-09-07T15:37:42;39.80;83.40
14172;DHT22;7165;52.388;4.928;2023-09-07T15:40:11;40.10;81.60
14172;DHT22;7165;52.388;4.928;2023-09-07T15:42:39;40.30;80.10